• Join FlightAware (Why Join?)
  • Login
  • US Flag 
07:26PM EDT


 

Airport Tracker/Info


-or-


 

Live Flight TrackerFlight Track Log ✈ N23WS ✈ 28-Jul-2013 ✈ KCVX - KPTK

Flight Track Log - Related Links

Times and Time Zones

All times are in EDT time to prevent confusion due to time zone crossing. See the N23WS flight status page for this flight to view local times or setup timezone preferences in your user account.

Time Position Orientation Groundspeed Altitude Reporting Facility
EDT Latitude Longitude Course Direction KTS MPH feet Rate Location/Type
01:58PM 45.2614 -85.3589 155° Southeast 147 169 6,100  Level Minneapolis Center
01:59PM 45.2261 -85.3261 147° Southeast 151 174 8,300 2,100 Climbing Minneapolis Center
02:00PM 45.1883 -85.2981 152° Southeast 152 175 10,500 1,980 Climbing Minneapolis Center
02:01PM 45.1461 -85.2736 158° South 158 182 12,400 2,040 Climbing Minneapolis Center
02:02PM 45.0919 -85.2350 153° Southeast 175 201 14,800 1,980 Climbing Minneapolis Center
02:03PM 44.9549 -85.0477 155° Southeast  Level FlightAware Approximate
02:03PM 45.0447 -85.2089 159° South 181 208 16,600  Level Minneapolis Center
02:04PM 44.9972 -85.1778 155° Southeast 184 212 18,200 1,500 Climbing Minneapolis Center
02:05PM 44.9492 -85.1411 152° Southeast 193 222 19,800 1,320 Climbing Minneapolis Center
02:06PM 44.9008 -85.1050 152° Southeast 195 224 21,000 540 Climbing Minneapolis Center
02:07PM 44.8422 -85.0622 153° Southeast 226 260 21,000  Level Minneapolis Center
02:08PM 44.7625 -85.0069 154° Southeast 259 298 21,000  Level Minneapolis Center
02:09PM 44.6972 -84.9592 153° Southeast 262 302 21,000  Level Minneapolis Center
02:10PM 44.6314 -84.9114 153° Southeast 264 304 21,000  Level Minneapolis Center
02:11PM 44.5667 -84.8642 153° Southeast 262 302 21,000  Level Minneapolis Center
02:12PM 44.5031 -84.8156 151° Southeast 262 302 21,000  Level Minneapolis Center
02:13PM 44.4367 -84.7692 153° Southeast 264 304 21,000  Level Minneapolis Center
02:14PM 44.3586 -84.7142 153° Southeast 263 303 21,000 -60 Level Minneapolis Center
02:15PM 44.2950 -84.6667 152° Southeast 260 299 20,900 -720 Descending Minneapolis Center
02:16PM 44.2264 -84.6175 153° Southeast 270 311 19,600 -960 Descending Minneapolis Center
02:17PM 44.1508 -84.5617 152° Southeast 291 335 19,000 -300 Descending Minneapolis Center
02:18PM 44.0800 -84.5117 153° Southeast 268 308 19,000  Level Minneapolis Center
02:19PM 44.0142 -84.4722 157° South 262 302 19,000  Level Minneapolis Center
02:20PM 43.9481 -84.4381 160° South 255 293 19,000  Level Minneapolis Center
02:21PM 43.8803 -84.4008 158° South 258 297 19,000  Level Minneapolis Center
02:23PM 43.8142 -84.3633 158° South 258 297 19,000 -300 Level Minneapolis Center
02:24PM 43.7486 -84.3269 158° South 255 293 18,500 -960 Descending Minneapolis Center
02:25PM 43.6636 -84.2775 157° South 269 310 17,100 -1,440 Descending Minneapolis Center
02:25PM 43.6192 -84.2508 157° South 272 313 16,100 -1,620 Descending Cleveland Center
02:26PM 43.5475 -84.2094 157° South 272 313 14,400 -1,620 Descending Cleveland Center
02:27PM 43.4781 -84.1653 155° Southeast 279 321 12,900 -1,620 Descending Cleveland Center
02:28PM 43.4147 -84.1186 152° Southeast 269 310 11,200 -1,200 Descending Cleveland Center
02:29PM 43.3597 -84.0756 150° Southeast 256 295 10,600 -720 Descending Cleveland Center
02:30PM 43.2967 -84.0292 152° Southeast 239 275 9,800 -780 Descending Cleveland Center
02:31PM 43.2417 -83.9861 150° Southeast 223 257 9,100 -660 Descending Cleveland Center
02:32PM 43.1886 -83.9461 151° Southeast 223 257 8,500 -780 Descending Cleveland Center
02:33PM 43.1353 -83.9119 155° Southeast 223 257 7,600 -840 Descending Cleveland Center
02:34PM 43.0781 -83.8747 155° Southeast 228 262 6,900 -720 Descending Cleveland Center
02:35PM 43.0208 -83.8378 155° Southeast 233 268 6,200 -600 Descending Cleveland Center
02:36PM 42.9656 -83.8036 156° South 228 262 5,700 -480 Descending Cleveland Center
02:38PM 42.8689 -83.7561 160° South 208 239 5,000 -360 Descending Cleveland Center
02:39PM 42.8233 -83.7369 163° South 196 226 4,900 -540 Descending Cleveland Center
02:40PM 42.7903 -83.6503 117° Southeast 233 268 4,000 -780 Descending Cleveland Center
02:41PM 42.7650 -83.5867 118° Southeast 220 253 3,400 -600 Descending Cleveland Center
02:42PM 42.7375 -83.5203 119° Southeast 210 242 3,000 -480 Descending Cleveland Center
02:43PM 42.7100 -83.4483 117° Southeast 200 230 2,500 -540 Descending Cleveland Center
02:44PM 42.6886 -83.3939 118° Southeast 149 171 1,900 -600 Descending Cleveland Center
02:46PM 42.6656 -83.4205 144° Southeast  Level Estimated